createdAt,value
2019-04-20T00:00:00.777Z,7.70
2019-04-20T00:02:23.736Z,7.77
2019-04-20T00:04:47.297Z,8.00
2019-04-20T00:07:12.185Z,8.53
2019-04-20T00:09:39.579Z,7.30
2019-04-20T00:12:08.709Z,7.80
2019-04-20T00:14:29.636Z,7.93
2019-04-20T00:16:51.197Z,7.30
2019-04-20T00:19:22.653Z,7.87
2019-04-20T00:21:47.039Z,8.10
2019-04-20T00:24:21.047Z,7.13
2019-04-20T00:29:24.830Z,8.37
2019-04-20T00:31:45.802Z,8.40
2019-04-20T00:34:06.122Z,8.10
2019-04-20T00:36:22.110Z,8.07
2019-04-20T00:38:51.581Z,8.50
2019-04-20T00:41:13.711Z,8.10
2019-04-20T00:43:38.779Z,7.63
2019-04-20T00:46:08.267Z,7.90
2019-04-20T00:48:40.333Z,8.03
2019-04-20T00:51:11.545Z,7.90
2019-04-20T00:53:25.797Z,7.60
2019-04-20T00:55:42.229Z,8.07
2019-04-20T00:58:18.487Z,7.60
2019-04-20T01:00:54.266Z,7.97
2019-04-20T01:03:14.442Z,7.73
2019-04-20T01:05:50.538Z,8.40
2019-04-20T01:08:00.026Z,8.03
2019-04-20T01:10:21.703Z,7.50
2019-04-20T01:12:45.880Z,7.47
2019-04-20T01:15:16.799Z,8.10
2019-04-20T01:17:37.965Z,8.47
2019-04-20T01:20:01.149Z,7.43
2019-04-20T01:22:27.314Z,7.90
2019-04-20T01:24:51.598Z,7.80
2019-04-20T01:27:29.636Z,8.00
2019-04-20T01:29:48.798Z,8.57
2019-04-20T01:32:15.162Z,7.97
2019-04-20T01:34:42.730Z,7.87
2019-04-20T01:37:09.313Z,7.43
2019-04-20T01:39:28.727Z,8.20
2019-04-20T01:41:46.038Z,7.27
2019-04-20T01:44:09.496Z,7.57
2019-04-20T01:46:34.667Z,6.87
2019-04-20T01:49:05.001Z,8.90
2019-04-20T01:51:29.741Z,8.00
2019-04-20T01:54:06.707Z,8.00
2019-04-20T01:56:27.514Z,7.83
2019-04-20T01:58:59.109Z,7.37
2019-04-20T02:01:25.157Z,7.73
2019-04-20T02:03:53.785Z,7.63
2019-04-20T02:06:21.304Z,7.80
2019-04-20T02:08:44.047Z,8.07
2019-04-20T02:11:09.382Z,7.37
2019-04-20T02:13:40.155Z,8.13
2019-04-20T02:16:09.533Z,7.63
2019-04-20T02:18:36.471Z,7.33
2019-04-20T02:21:07.296Z,8.10
2019-04-20T02:23:24.989Z,7.57
2019-04-20T02:25:39.697Z,8.33
2019-04-20T02:28:22.854Z,7.93
2019-04-20T02:31:06.646Z,7.93
2019-04-20T02:33:37.892Z,7.60
2019-04-20T02:36:00.657Z,7.30
2019-04-20T02:38:33.941Z,7.67
2019-04-20T02:40:51.076Z,7.80
2019-04-20T02:48:13.439Z,8.07
2019-04-20T02:50:34.211Z,7.53
2019-04-20T02:52:56.313Z,7.15
2019-04-20T02:55:43.544Z,7.60
2019-04-20T02:57:54.827Z,7.57
2019-04-20T03:00:22.065Z,6.90
2019-04-20T03:02:18.460Z,7.40
2019-04-20T03:04:37.148Z,8.00
2019-04-20T03:07:08.485Z,7.97
2019-04-20T03:09:39.959Z,7.40
2019-04-20T03:12:08.173Z,7.33
2019-04-20T03:14:29.304Z,7.33
2019-04-20T03:16:50.335Z,7.77
2019-04-20T03:19:18.686Z,8.07
2019-04-20T03:21:47.896Z,7.37
2019-04-20T03:24:20.775Z,8.67
2019-04-20T03:26:37.852Z,7.37
2019-04-20T03:29:11.664Z,9.03
2019-04-20T03:32:03.757Z,8.40
2019-04-20T03:36:42.609Z,7.63
2019-04-20T03:38:57.390Z,8.27
2019-04-20T03:41:16.258Z,8.43
2019-04-20T03:43:28.793Z,8.53
2019-04-20T03:45:59.489Z,7.47
2019-04-20T03:48:39.245Z,7.63
2019-04-20T03:51:02.102Z,7.70
2019-04-20T03:53:29.244Z,7.73
2019-04-20T03:55:56.677Z,7.97
2019-04-20T03:58:39.072Z,8.20
2019-04-20T04:01:45.612Z,8.33
2019-04-20T04:04:06.648Z,8.50
2019-04-20T04:06:17.770Z,7.93
2019-04-20T04:08:40.872Z,7.93
2019-04-20T04:11:18.888Z,7.67
2019-04-20T04:13:24.839Z,8.10
2019-04-20T04:15:55.605Z,7.47
2019-04-20T04:18:24.184Z,8.03
2019-04-20T04:20:47.869Z,7.20
2019-04-20T04:23:24.622Z,7.63
2019-04-20T04:25:54.546Z,7.77
2019-04-20T04:28:15.237Z,7.50
2019-04-20T04:30:39.323Z,8.23
2019-04-20T04:33:32.920Z,7.70
2019-04-20T04:35:24.430Z,8.17
2019-04-20T04:37:57.019Z,7.73
2019-04-20T04:40:31.687Z,7.28
2019-04-20T04:42:52.280Z,7.07
2019-04-20T04:45:03.931Z,7.53
2019-04-20T04:47:21.942Z,7.47
2019-04-20T04:49:57.272Z,7.50
2019-04-20T04:52:15.402Z,8.67
2019-04-20T04:54:46.180Z,8.00
2019-04-20T04:57:01.166Z,8.13
2019-04-20T04:59:25.721Z,8.10
2019-04-20T05:01:53.410Z,7.30
2019-04-20T05:04:32.699Z,8.47
2019-04-20T05:06:53.671Z,7.20
2019-04-20T05:09:10.391Z,7.90
2019-04-20T05:11:32.019Z,8.87
2019-04-20T05:14:02.219Z,7.90
2019-04-20T05:16:43.169Z,7.57
2019-04-20T05:19:09.389Z,8.00
2019-04-20T05:21:31.486Z,8.03
2019-04-20T05:23:53.520Z,7.47
2019-04-20T05:26:36.076Z,8.37
2019-04-20T05:28:48.326Z,8.43
2019-04-20T05:31:07.707Z,8.33
2019-04-20T05:33:48.536Z,8.60
2019-04-20T05:36:16.366Z,7.80
2019-04-20T05:41:04.583Z,8.23
2019-04-20T05:43:43.845Z,7.53
2019-04-20T05:46:06.203Z,8.00
2019-04-20T05:48:33.683Z,7.60
2019-04-20T05:50:58.781Z,8.20
2019-04-20T05:53:26.449Z,8.03
2019-04-20T05:55:49.261Z,8.03
2019-04-20T05:58:17.872Z,8.07
2019-04-20T06:00:47.988Z,8.37
2019-04-20T06:03:05.659Z,8.47
2019-04-20T06:05:39.602Z,7.50
2019-04-20T06:08:00.734Z,7.90
2019-04-20T06:10:27.476Z,8.30
2019-04-20T06:12:49.994Z,7.83
2019-04-20T06:15:13.300Z,7.80
2019-04-20T06:18:02.884Z,7.77
2019-04-20T06:20:39.202Z,7.83
2019-04-20T06:23:05.910Z,8.00
2019-04-20T06:27:52.467Z,9.00
2019-04-20T06:30:13.653Z,20.33
2019-04-20T06:33:34.636Z,34.77
2019-04-20T06:36:00.925Z,33.93
2019-04-20T06:38:29.892Z,23.40
2019-04-20T06:41:03.571Z,20.77
2019-04-20T06:43:05.204Z,16.13
2019-04-20T06:45:39.844Z,11.97
2019-04-20T06:47:57.849Z,11.53
2019-04-20T06:50:18.672Z,10.03
2019-04-20T06:52:36.859Z,10.77
2019-04-20T06:55:36.878Z,11.07
2019-04-20T06:57:52.850Z,11.23
2019-04-20T07:00:00.813Z,10.53
2019-04-20T07:02:29.500Z,10.50
2019-04-20T07:07:22.423Z,10.57
2019-04-20T07:09:55.622Z,14.03
2019-04-20T07:12:06.437Z,12.30
2019-04-20T07:14:31.530Z,12.77
2019-04-20T07:17:30.849Z,11.20
2019-04-20T07:19:40.183Z,10.33
2019-04-20T07:22:21.711Z,9.23
2019-04-20T07:24:45.846Z,8.03
2019-04-20T07:27:04.593Z,7.67
2019-04-20T07:29:33.294Z,6.37
2019-04-20T07:31:50.041Z,6.30
2019-04-20T07:34:20.366Z,7.03
2019-04-20T07:36:50.281Z,7.30
2019-04-20T07:39:15.855Z,6.77
2019-04-20T07:41:42.965Z,5.90
2019-04-20T07:44:23.957Z,6.00
2019-04-20T07:46:41.228Z,6.33
2019-04-20T07:48:49.179Z,6.77
2019-04-20T07:51:04.810Z,6.50
2019-04-20T07:53:33.334Z,6.97
2019-04-20T07:56:07.266Z,7.50
2019-04-20T07:58:23.070Z,7.10
2019-04-20T08:01:05.740Z,6.90
2019-04-20T08:03:28.380Z,7.00
2019-04-20T08:05:59.603Z,6.90
2019-04-20T08:08:28.183Z,7.00
2019-04-20T08:10:54.285Z,6.43
2019-04-20T08:13:35.412Z,7.30
2019-04-20T08:18:17.993Z,6.60
2019-04-20T08:20:41.558Z,7.30
2019-04-20T08:23:09.801Z,6.93
2019-04-20T08:25:26.561Z,6.70
2019-04-20T08:27:52.960Z,7.43
2019-04-20T08:30:38.439Z,7.27
2019-04-20T08:33:28.612Z,7.40
2019-04-20T08:36:02.744Z,7.00
2019-04-20T08:38:51.566Z,7.47
2019-04-20T08:40:43.752Z,9.50
2019-04-20T08:43:26.133Z,7.53
2019-04-20T08:45:43.045Z,6.60
2019-04-20T08:48:14.191Z,7.00
2019-04-20T08:50:29.650Z,6.70
2019-04-20T08:53:15.924Z,7.00
2019-04-20T08:55:14.942Z,6.80
2019-04-20T08:57:24.735Z,6.70
2019-04-20T08:59:50.989Z,7.00
2019-04-20T09:02:15.761Z,6.78
2019-04-20T09:04:49.028Z,6.83
2019-04-20T09:07:11.706Z,6.00
2019-04-20T09:09:49.080Z,6.17
2019-04-20T09:12:12.076Z,6.17
2019-04-20T09:14:21.539Z,5.60
2019-04-20T09:16:51.769Z,5.73
2019-04-20T09:19:13.295Z,5.33
2019-04-20T09:21:43.732Z,5.67
2019-04-20T09:24:32.976Z,5.70
2019-04-20T09:26:42.243Z,5.10
2019-04-20T09:29:11.790Z,5.30
2019-04-20T09:31:40.941Z,5.37
2019-04-20T09:34:16.320Z,5.20
2019-04-20T09:36:42.135Z,5.70
2019-04-20T09:39:18.803Z,4.90
2019-04-20T09:41:58.803Z,5.10
2019-04-20T09:44:03.020Z,4.80
2019-04-20T09:46:26.470Z,4.83
2019-04-20T09:48:57.352Z,4.97
2019-04-20T09:51:33.438Z,5.00
2019-04-20T09:53:50.585Z,4.80
2019-04-20T09:56:19.801Z,4.80
2019-04-20T09:58:53.371Z,5.33
2019-04-20T10:01:09.791Z,5.10
2019-04-20T10:03:22.661Z,4.83
2019-04-20T10:05:47.454Z,4.90
2019-04-20T10:08:11.806Z,4.80
2019-04-20T10:10:40.582Z,5.07
2019-04-20T10:13:00.632Z,4.80
2019-04-20T10:15:26.628Z,5.40
2019-04-20T10:17:49.914Z,5.22
2019-04-20T10:20:20.834Z,4.90
2019-04-20T10:22:38.646Z,4.87
2019-04-20T10:25:02.667Z,5.00
2019-04-20T10:27:26.543Z,5.22
2019-04-20T10:29:51.353Z,5.22
2019-04-20T10:32:16.023Z,5.10
2019-04-20T10:34:40.935Z,5.15
2019-04-20T10:37:06.119Z,4.70
2019-04-20T10:39:31.234Z,4.87
2019-04-20T10:41:58.754Z,5.05
2019-04-20T10:44:20.927Z,4.47
2019-04-20T10:46:44.920Z,4.90
2019-04-20T10:49:09.771Z,5.62
2019-04-20T10:51:33.733Z,5.12
2019-04-20T10:53:58.323Z,4.92
2019-04-20T10:56:23.206Z,4.90
2019-04-20T10:58:47.509Z,5.10
2019-04-20T11:01:11.544Z,12.80
2019-04-20T11:03:36.484Z,16.57
2019-04-20T11:06:00.710Z,45.40
2019-04-20T11:08:24.523Z,5.90
2019-04-20T11:10:59.250Z,19.20
2019-04-20T11:13:13.203Z,17.42
2019-04-20T11:15:36.817Z,29.37
2019-04-20T11:18:01.563Z,9.05
2019-04-20T11:20:25.547Z,8.80
2019-04-20T11:22:50.441Z,8.05
2019-04-20T11:25:14.482Z,6.60
2019-04-20T11:27:38.415Z,6.10
2019-04-20T11:30:02.477Z,6.53
2019-04-20T11:32:26.300Z,6.67
2019-04-20T11:34:49.662Z,6.58
2019-04-20T11:37:13.191Z,6.55
2019-04-20T11:39:37.011Z,6.55
2019-04-20T11:42:01.591Z,6.85
2019-04-20T11:44:26.919Z,7.20
2019-04-20T11:46:50.406Z,7.00
2019-04-20T11:49:15.353Z,7.00
2019-04-20T11:51:39.458Z,6.80
2019-04-20T11:54:04.224Z,6.22
2019-04-20T11:56:34.400Z,7.15
2019-04-20T11:58:53.127Z,7.12
2019-04-20T12:01:23.422Z,6.87
2019-04-20T12:03:55.478Z,6.45
2019-04-20T12:06:10.971Z,6.55
2019-04-20T12:08:37.465Z,7.20
2019-04-20T12:11:06.421Z,6.58
2019-04-20T12:13:26.877Z,7.33
2019-04-20T12:15:51.731Z,6.87
2019-04-20T12:18:15.769Z,6.83
2019-04-20T12:20:39.242Z,6.37
2019-04-20T12:23:02.702Z,7.58
2019-04-20T12:25:26.409Z,7.45
2019-04-20T12:27:55.066Z,8.70
2019-04-20T12:30:15.549Z,8.10
2019-04-20T12:32:42.945Z,7.67
2019-04-20T12:35:08.226Z,7.68
2019-04-20T12:37:34.160Z,7.45
2019-04-20T12:39:57.483Z,7.72
2019-04-20T12:42:21.237Z,8.28
2019-04-20T12:44:45.904Z,8.33
2019-04-20T12:47:10.070Z,7.85
2019-04-20T12:49:33.694Z,8.43
2019-04-20T12:52:00.101Z,7.72
2019-04-20T12:54:22.768Z,8.40
2019-04-20T12:56:46.577Z,9.78
2019-04-20T12:59:10.010Z,9.05
2019-04-20T13:01:33.535Z,9.77
2019-04-20T13:03:57.403Z,9.45
2019-04-20T13:06:21.755Z,9.10
2019-04-20T13:08:51.761Z,8.75
2019-04-20T13:11:24.726Z,8.40
2019-04-20T13:13:52.829Z,9.30
2019-04-20T13:16:30.361Z,9.08
2019-04-20T13:18:55.398Z,8.50
2019-04-20T13:21:19.246Z,8.33
2019-04-20T13:23:42.889Z,7.67
2019-04-20T13:26:08.644Z,8.88
2019-04-20T13:28:32.835Z,16.65
2019-04-20T13:30:57.766Z,14.35
2019-04-20T13:33:21.545Z,12.58
2019-04-20T13:35:48.097Z,15.93
2019-04-20T13:38:12.047Z,28.00
2019-04-20T13:40:35.715Z,11.08
2019-04-20T13:42:59.580Z,14.13
2019-04-20T13:45:24.586Z,13.70
2019-04-20T13:47:48.703Z,9.28
2019-04-20T13:50:13.175Z,7.97
2019-04-20T13:52:38.479Z,8.55
2019-04-20T13:55:02.392Z,8.05
2019-04-20T13:57:37.903Z,8.03
2019-04-20T14:00:04.219Z,8.28
2019-04-20T14:02:33.082Z,7.08
2019-04-20T14:04:58.981Z,6.58
2019-04-20T14:07:24.064Z,7.67
2019-04-20T14:09:47.840Z,8.10
2019-04-20T14:12:22.076Z,7.60
2019-04-20T14:14:37.212Z,7.20
2019-04-20T14:17:01.165Z,8.43
2019-04-20T14:19:25.139Z,8.10
2019-04-20T14:21:48.582Z,7.35
2019-04-20T14:24:13.070Z,7.15
2019-04-20T14:26:39.485Z,7.73
2019-04-20T14:29:02.967Z,7.62
2019-04-20T14:31:27.884Z,8.50
2019-04-20T14:33:51.367Z,8.15
2019-04-20T14:36:14.965Z,7.65
2019-04-20T14:38:38.418Z,7.47
2019-04-20T14:41:02.244Z,7.67
2019-04-20T14:43:26.848Z,8.53
2019-04-20T14:45:50.919Z,7.83
2019-04-20T14:48:14.379Z,7.45
2019-04-20T14:50:38.076Z,7.60
2019-04-20T14:53:01.828Z,8.00
2019-04-20T14:55:25.834Z,7.83
2019-04-20T14:57:49.827Z,8.73
2019-04-20T15:00:15.525Z,8.85
2019-04-20T15:02:40.288Z,8.50
2019-04-20T15:05:07.400Z,8.80
2019-04-20T15:07:31.101Z,9.58
2019-04-20T15:09:55.112Z,8.73
2019-04-20T15:12:19.029Z,8.40
2019-04-20T15:14:42.792Z,8.33
2019-04-20T15:17:07.058Z,8.10
2019-04-20T15:19:33.397Z,8.23
2019-04-20T15:21:59.815Z,9.50
2019-04-20T15:24:23.757Z,20.52
2019-04-20T15:26:48.656Z,8.58
2019-04-20T15:29:12.537Z,9.33
2019-04-20T15:31:36.435Z,9.38
2019-04-20T15:34:01.238Z,9.45
2019-04-20T15:36:24.719Z,8.95
2019-04-20T15:38:49.346Z,9.00
2019-04-20T15:41:14.766Z,9.20
2019-04-20T15:43:39.159Z,8.95
2019-04-20T15:46:03.404Z,9.40
2019-04-20T15:48:28.050Z,10.00
2019-04-20T15:50:51.917Z,9.10
2019-04-20T15:53:15.673Z,10.03
2019-04-20T15:55:41.415Z,9.30
2019-04-20T15:58:06.559Z,9.88
2019-04-20T16:00:29.833Z,9.00
2019-04-20T16:02:54.930Z,8.98
2019-04-20T16:05:20.060Z,9.48
2019-04-20T16:07:50.643Z,9.88
2019-04-20T16:10:09.561Z,9.58
2019-04-20T16:12:33.133Z,9.15
2019-04-20T16:14:57.681Z,12.58
2019-04-20T16:17:24.284Z,9.03
2019-04-20T16:19:55.380Z,9.18
2019-04-20T16:22:12.152Z,10.43
2019-04-20T16:24:40.720Z,10.60
2019-04-20T16:27:05.735Z,10.68
2019-04-20T16:29:29.448Z,10.88
2019-04-20T16:31:54.232Z,11.88
2019-04-20T16:34:19.242Z,10.85
2019-04-20T16:36:44.365Z,9.88
2019-04-20T16:39:10.611Z,11.30
2019-04-20T16:41:33.688Z,11.43
2019-04-20T16:43:57.524Z,11.18
2019-04-20T16:46:23.651Z,10.58
2019-04-20T16:48:46.328Z,10.85
2019-04-20T16:51:10.921Z,10.48
2019-04-20T16:53:34.985Z,9.90
2019-04-20T16:55:58.961Z,10.00
2019-04-20T16:58:22.345Z,10.70
2019-04-20T17:00:46.328Z,9.53
2019-04-20T17:03:11.134Z,9.80
2019-04-20T17:05:35.044Z,9.55
2019-04-20T17:08:00.716Z,10.48
2019-04-20T17:10:26.256Z,10.00
2019-04-20T17:12:51.174Z,10.32
2019-04-20T17:15:15.928Z,11.17
2019-04-20T17:17:39.949Z,9.48
2019-04-20T17:20:07.333Z,9.80
2019-04-20T17:22:31.718Z,9.90
2019-04-20T17:24:55.664Z,9.38
2019-04-20T17:27:23.824Z,8.08
2019-04-20T17:30:05.218Z,8.65
2019-04-20T17:32:33.671Z,8.88
2019-04-20T17:35:09.181Z,9.45
2019-04-20T17:37:22.693Z,8.33
2019-04-20T17:40:06.680Z,8.15
2019-04-20T17:42:25.184Z,8.43
2019-04-20T17:44:51.899Z,8.45
2019-04-20T17:47:21.489Z,9.18
2019-04-20T17:49:41.323Z,9.85
2019-04-20T17:52:17.957Z,9.18
2019-04-20T17:54:19.842Z,9.85
2019-04-20T17:56:44.477Z,8.78
2019-04-20T17:59:08.262Z,10.55
2019-04-20T18:01:51.229Z,10.80
2019-04-20T18:04:37.003Z,9.63
2019-04-20T18:06:45.298Z,13.90
2019-04-20T18:09:06.667Z,12.63
2019-04-20T18:11:23.509Z,13.97
2019-04-20T18:13:49.321Z,8.98
2019-04-20T18:16:41.835Z,8.50
2019-04-20T18:19:05.646Z,8.13
2019-04-20T18:21:24.524Z,7.40
2019-04-20T18:23:51.305Z,8.63
2019-04-20T18:26:33.943Z,8.60
2019-04-20T18:29:05.182Z,9.35
2019-04-20T18:31:15.452Z,9.78
2019-04-20T18:33:40.545Z,9.23
2019-04-20T18:36:04.068Z,9.50
2019-04-20T18:38:30.504Z,10.03
2019-04-20T18:40:58.838Z,9.80
2019-04-20T18:43:22.236Z,11.03
2019-04-20T18:46:03.744Z,8.60
2019-04-20T18:48:36.517Z,11.10
2019-04-20T18:50:39.808Z,9.13
2019-04-20T18:52:59.956Z,9.23
2019-04-20T18:55:33.291Z,9.87
2019-04-20T18:57:49.142Z,9.90
2019-04-20T19:00:21.549Z,9.47
2019-04-20T19:02:44.573Z,8.57
2019-04-20T19:05:08.639Z,9.20
2019-04-20T19:07:39.996Z,11.03
2019-04-20T19:10:02.572Z,11.57
2019-04-20T19:12:34.511Z,12.63
2019-04-20T19:15:13.503Z,11.93
2019-04-20T19:17:45.190Z,13.23
2019-04-20T19:20:08.760Z,11.00
2019-04-20T19:22:33.013Z,9.50
2019-04-20T19:24:57.998Z,9.93
2019-04-20T19:27:31.994Z,9.27
2019-04-20T19:29:56.461Z,8.47
2019-04-20T19:32:34.249Z,9.43
2019-04-20T19:34:50.215Z,8.60
2019-04-20T19:37:14.310Z,9.10
2019-04-20T19:39:43.679Z,8.87
2019-04-20T19:42:02.928Z,8.23
2019-04-20T19:44:27.223Z,9.50
2019-04-20T19:47:05.392Z,9.50
2019-04-20T19:49:24.403Z,9.73
2019-04-20T19:52:02.754Z,10.90
2019-04-20T19:54:28.411Z,10.17
2019-04-20T19:56:43.940Z,9.23
2019-04-20T19:59:02.953Z,9.90
2019-04-20T20:01:15.682Z,10.30
2019-04-20T20:03:39.610Z,9.83
2019-04-20T20:06:03.885Z,9.57
2019-04-20T20:08:31.268Z,9.83
2019-04-20T20:10:52.745Z,10.03
2019-04-20T20:13:16.186Z,10.43
2019-04-20T20:15:41.816Z,10.17
2019-04-20T20:18:23.371Z,10.50
2019-04-20T20:20:52.928Z,10.27
2019-04-20T20:22:58.532Z,10.90
2019-04-20T20:25:24.377Z,9.87
2019-04-20T20:27:51.170Z,11.37
2019-04-20T20:30:20.401Z,11.23
2019-04-20T20:32:53.638Z,10.80
2019-04-20T20:35:12.642Z,10.37
2019-04-20T20:37:34.790Z,11.43
2019-04-20T20:39:59.517Z,11.30
2019-04-20T20:42:29.589Z,11.70
2019-04-20T20:44:50.565Z,11.33
2019-04-20T20:47:31.421Z,13.13
2019-04-20T20:49:56.884Z,15.13
2019-04-20T20:52:17.336Z,13.47
2019-04-20T20:54:36.422Z,15.23
2019-04-20T20:56:59.490Z,15.35
2019-04-20T20:59:26.849Z,16.73
2019-04-20T21:01:48.374Z,16.50
2019-04-20T21:04:04.990Z,16.43
2019-04-20T21:06:28.804Z,18.52
2019-04-20T21:08:56.000Z,17.30
2019-04-20T21:11:22.046Z,16.27
2019-04-20T21:13:47.278Z,18.13
2019-04-20T21:16:15.386Z,18.43
2019-04-20T21:18:50.359Z,18.10
2019-04-20T21:21:15.110Z,18.23
2019-04-20T21:23:36.684Z,17.47
2019-04-20T21:26:06.867Z,17.23
2019-04-20T21:28:31.114Z,16.60
2019-04-20T21:30:59.875Z,16.93
2019-04-20T21:33:20.780Z,17.63
2019-04-20T21:35:48.305Z,16.67
2019-04-20T21:38:13.178Z,15.60
2019-04-20T21:40:39.963Z,15.93
2019-04-20T21:43:05.209Z,17.47
2019-04-20T21:45:30.543Z,15.43
2019-04-20T21:47:52.472Z,14.47
2019-04-20T21:50:31.209Z,15.47
2019-04-20T21:52:46.764Z,16.00
2019-04-20T21:55:08.203Z,15.27
2019-04-20T21:57:37.424Z,15.50
2019-04-20T22:00:02.596Z,15.80
2019-04-20T22:02:27.141Z,14.60
2019-04-20T22:04:47.341Z,15.37
2019-04-20T22:07:12.377Z,15.10
2019-04-20T22:09:43.402Z,14.73
2019-04-20T22:12:02.113Z,14.63
2019-04-20T22:14:28.437Z,14.07
2019-04-20T22:16:53.791Z,15.90
2019-04-20T22:19:32.777Z,14.57
2019-04-20T22:21:53.350Z,14.50
2019-04-20T22:24:25.310Z,15.47
2019-04-20T22:26:45.855Z,16.73
2019-04-20T22:28:58.291Z,14.30
2019-04-20T22:31:22.290Z,17.23
2019-04-20T22:33:47.311Z,17.37
2019-04-20T22:36:12.637Z,15.03
2019-04-20T22:38:46.527Z,14.37
2019-04-20T22:41:09.267Z,15.57
2019-04-20T22:43:33.694Z,15.73
2019-04-20T22:45:54.303Z,15.93
2019-04-20T22:48:20.826Z,16.80
2019-04-20T22:51:01.716Z,15.80
2019-04-20T22:53:26.087Z,15.47
2019-04-20T22:55:54.922Z,16.67
2019-04-20T22:58:14.304Z,16.83
2019-04-20T23:00:36.660Z,16.47
2019-04-20T23:02:49.337Z,16.53
2019-04-20T23:05:13.133Z,16.80
2019-04-20T23:07:36.947Z,16.50
2019-04-20T23:10:03.075Z,16.37
2019-04-20T23:12:27.581Z,15.57
2019-04-20T23:14:52.194Z,15.43
2019-04-20T23:17:18.376Z,15.90
2019-04-20T23:19:48.484Z,16.13
2019-04-20T23:22:09.924Z,16.80
2019-04-20T23:24:31.351Z,14.87
2019-04-20T23:26:55.271Z,14.40
2019-04-20T23:29:22.679Z,15.27
2019-04-20T23:31:49.307Z,15.30
2019-04-20T23:34:14.369Z,14.03
2019-04-20T23:36:38.885Z,13.67
2019-04-20T23:39:02.902Z,15.20
2019-04-20T23:41:25.940Z,14.03
2019-04-20T23:43:54.938Z,13.33
2019-04-20T23:46:37.023Z,15.20
2019-04-20T23:49:27.255Z,13.00
2019-04-20T23:52:05.743Z,13.60
2019-04-20T23:54:17.653Z,13.33
2019-04-20T23:56:35.761Z,13.23
2019-04-20T23:58:59.826Z,14.07
